sensor_id;sensor_type;location;lat;lon;timestamp;P1;durP1;ratioP1;P2;durP2;ratioP2
809;SDS011;387;48.772;9.186;2022-08-03T00:01:03;6.03;;;5.10;;
809;SDS011;387;48.772;9.186;2022-08-03T00:03:29;5.97;;;4.30;;
809;SDS011;387;48.772;9.186;2022-08-03T00:05:55;7.67;;;5.00;;
809;SDS011;387;48.772;9.186;2022-08-03T00:08:23;6.13;;;4.90;;
809;SDS011;387;48.772;9.186;2022-08-03T00:10:49;7.30;;;5.07;;
809;SDS011;387;48.772;9.186;2022-08-03T00:13:14;8.10;;;5.10;;
809;SDS011;387;48.772;9.186;2022-08-03T00:15:41;5.00;;;3.77;;
809;SDS011;387;48.772;9.186;2022-08-03T00:18:07;7.93;;;4.43;;
809;SDS011;387;48.772;9.186;2022-08-03T00:20:33;5.40;;;4.33;;
809;SDS011;387;48.772;9.186;2022-08-03T00:22:59;7.03;;;5.07;;
809;SDS011;387;48.772;9.186;2022-08-03T00:25:24;6.20;;;4.50;;
809;SDS011;387;48.772;9.186;2022-08-03T00:27:50;7.80;;;4.90;;
809;SDS011;387;48.772;9.186;2022-08-03T00:30:16;5.30;;;4.50;;
809;SDS011;387;48.772;9.186;2022-08-03T00:32:42;6.50;;;4.70;;
809;SDS011;387;48.772;9.186;2022-08-03T00:35:07;7.17;;;5.00;;
809;SDS011;387;48.772;9.186;2022-08-03T00:37:33;7.30;;;5.13;;
809;SDS011;387;48.772;9.186;2022-08-03T00:39:59;7.70;;;4.80;;
809;SDS011;387;48.772;9.186;2022-08-03T00:42:24;7.63;;;5.17;;
809;SDS011;387;48.772;9.186;2022-08-03T00:44:50;7.80;;;4.97;;
809;SDS011;387;48.772;9.186;2022-08-03T00:47:16;7.50;;;5.97;;
809;SDS011;387;48.772;9.186;2022-08-03T00:49:41;6.57;;;4.57;;
809;SDS011;387;48.772;9.186;2022-08-03T00:52:07;7.67;;;5.03;;
809;SDS011;387;48.772;9.186;2022-08-03T00:54:35;7.97;;;4.70;;
809;SDS011;387;48.772;9.186;2022-08-03T00:57:01;6.33;;;4.60;;
809;SDS011;387;48.772;9.186;2022-08-03T00:59:28;6.50;;;4.73;;
809;SDS011;387;48.772;9.186;2022-08-03T01:01:55;5.40;;;3.90;;
809;SDS011;387;48.772;9.186;2022-08-03T01:04:20;6.03;;;4.30;;
809;SDS011;387;48.772;9.186;2022-08-03T01:06:51;5.37;;;4.33;;
809;SDS011;387;48.772;9.186;2022-08-03T01:15:37;6.83;;;4.60;;
809;SDS011;387;48.772;9.186;2022-08-03T01:18:21;8.00;;;4.60;;
809;SDS011;387;48.772;9.186;2022-08-03T01:20:56;6.90;;;4.13;;
809;SDS011;387;48.772;9.186;2022-08-03T01:31:20;7.63;;;5.57;;
809;SDS011;387;48.772;9.186;2022-08-03T01:33:51;7.90;;;5.60;;
809;SDS011;387;48.772;9.186;2022-08-03T01:36:28;5.70;;;4.50;;
809;SDS011;387;48.772;9.186;2022-08-03T01:38:59;6.43;;;4.43;;
809;SDS011;387;48.772;9.186;2022-08-03T01:41:30;7.80;;;5.10;;
809;SDS011;387;48.772;9.186;2022-08-03T01:43:59;8.73;;;5.20;;
809;SDS011;387;48.772;9.186;2022-08-03T01:46:27;5.77;;;4.60;;
809;SDS011;387;48.772;9.186;2022-08-03T01:48:55;6.00;;;4.67;;
809;SDS011;387;48.772;9.186;2022-08-03T01:51:22;5.17;;;3.83;;
809;SDS011;387;48.772;9.186;2022-08-03T01:53:48;7.00;;;4.90;;
809;SDS011;387;48.772;9.186;2022-08-03T01:56:16;7.53;;;4.47;;
809;SDS011;387;48.772;9.186;2022-08-03T01:58:43;6.90;;;5.03;;
809;SDS011;387;48.772;9.186;2022-08-03T02:01:10;7.40;;;4.60;;
809;SDS011;387;48.772;9.186;2022-08-03T02:03:38;5.37;;;4.03;;
809;SDS011;387;48.772;9.186;2022-08-03T02:06:06;6.83;;;4.20;;
809;SDS011;387;48.772;9.186;2022-08-03T02:08:34;10.70;;;5.23;;
809;SDS011;387;48.772;9.186;2022-08-03T02:11:00;9.20;;;4.97;;
809;SDS011;387;48.772;9.186;2022-08-03T02:13:26;7.80;;;4.70;;
809;SDS011;387;48.772;9.186;2022-08-03T02:15:54;6.20;;;4.97;;
809;SDS011;387;48.772;9.186;2022-08-03T02:18:21;5.30;;;4.20;;
809;SDS011;387;48.772;9.186;2022-08-03T02:20:49;5.80;;;4.50;;
809;SDS011;387;48.772;9.186;2022-08-03T02:23:16;5.97;;;4.57;;
809;SDS011;387;48.772;9.186;2022-08-03T02:25:43;5.57;;;4.20;;
809;SDS011;387;48.772;9.186;2022-08-03T02:28:18;5.30;;;3.90;;
809;SDS011;387;48.772;9.186;2022-08-03T02:30:49;6.40;;;4.57;;
809;SDS011;387;48.772;9.186;2022-08-03T02:33:20;5.67;;;4.40;;
809;SDS011;387;48.772;9.186;2022-08-03T02:35:56;6.03;;;4.60;;
809;SDS011;387;48.772;9.186;2022-08-03T02:38:22;6.07;;;4.87;;
809;SDS011;387;48.772;9.186;2022-08-03T02:40:53;7.37;;;4.67;;
809;SDS011;387;48.772;9.186;2022-08-03T02:43:21;6.90;;;5.10;;
809;SDS011;387;48.772;9.186;2022-08-03T02:45:49;5.80;;;4.53;;
809;SDS011;387;48.772;9.186;2022-08-03T02:48:17;6.73;;;4.20;;
809;SDS011;387;48.772;9.186;2022-08-03T02:50:47;6.17;;;4.40;;
809;SDS011;387;48.772;9.186;2022-08-03T02:53:15;6.83;;;4.60;;
809;SDS011;387;48.772;9.186;2022-08-03T02:55:42;6.73;;;5.33;;
809;SDS011;387;48.772;9.186;2022-08-03T02:58:10;6.30;;;4.87;;
809;SDS011;387;48.772;9.186;2022-08-03T03:00:37;6.47;;;5.10;;
809;SDS011;387;48.772;9.186;2022-08-03T03:03:04;6.50;;;4.47;;
809;SDS011;387;48.772;9.186;2022-08-03T03:05:30;7.83;;;5.23;;
809;SDS011;387;48.772;9.186;2022-08-03T03:07:56;8.77;;;4.77;;
809;SDS011;387;48.772;9.186;2022-08-03T03:10:22;7.93;;;4.30;;
809;SDS011;387;48.772;9.186;2022-08-03T03:12:50;8.13;;;4.47;;
809;SDS011;387;48.772;9.186;2022-08-03T03:15:25;5.63;;;4.37;;
809;SDS011;387;48.772;9.186;2022-08-03T03:17:52;6.30;;;4.13;;
809;SDS011;387;48.772;9.186;2022-08-03T03:20:19;5.70;;;4.70;;
809;SDS011;387;48.772;9.186;2022-08-03T03:22:47;6.13;;;5.40;;
809;SDS011;387;48.772;9.186;2022-08-03T03:25:14;7.07;;;4.70;;
809;SDS011;387;48.772;9.186;2022-08-03T03:27:41;5.83;;;4.50;;
809;SDS011;387;48.772;9.186;2022-08-03T03:30:07;5.30;;;4.87;;
809;SDS011;387;48.772;9.186;2022-08-03T03:32:33;6.97;;;4.83;;
809;SDS011;387;48.772;9.186;2022-08-03T03:35:00;8.00;;;4.50;;
809;SDS011;387;48.772;9.186;2022-08-03T03:37:26;5.37;;;4.40;;
809;SDS011;387;48.772;9.186;2022-08-03T03:39:52;5.67;;;4.30;;
809;SDS011;387;48.772;9.186;2022-08-03T03:42:19;13.13;;;5.40;;
809;SDS011;387;48.772;9.186;2022-08-03T03:44:44;7.40;;;5.53;;
809;SDS011;387;48.772;9.186;2022-08-03T03:47:10;7.60;;;5.83;;
809;SDS011;387;48.772;9.186;2022-08-03T03:49:36;10.07;;;5.57;;
809;SDS011;387;48.772;9.186;2022-08-03T03:52:02;6.33;;;5.10;;
809;SDS011;387;48.772;9.186;2022-08-03T03:54:41;7.37;;;5.10;;
809;SDS011;387;48.772;9.186;2022-08-03T03:57:07;6.47;;;5.10;;
809;SDS011;387;48.772;9.186;2022-08-03T03:59:36;8.83;;;5.43;;
809;SDS011;387;48.772;9.186;2022-08-03T04:02:03;8.67;;;5.83;;
809;SDS011;387;48.772;9.186;2022-08-03T04:04:30;6.03;;;5.20;;
809;SDS011;387;48.772;9.186;2022-08-03T04:07:18;6.53;;;5.17;;
809;SDS011;387;48.772;9.186;2022-08-03T04:10:04;8.97;;;5.43;;
809;SDS011;387;48.772;9.186;2022-08-03T04:12:56;8.63;;;5.77;;
809;SDS011;387;48.772;9.186;2022-08-03T04:15:24;9.30;;;5.70;;
809;SDS011;387;48.772;9.186;2022-08-03T04:17:53;9.60;;;6.27;;
809;SDS011;387;48.772;9.186;2022-08-03T04:20:21;9.10;;;6.50;;
809;SDS011;387;48.772;9.186;2022-08-03T04:22:50;9.50;;;6.70;;
809;SDS011;387;48.772;9.186;2022-08-03T04:25:18;9.03;;;6.30;;
809;SDS011;387;48.772;9.186;2022-08-03T04:27:47;9.80;;;6.43;;
809;SDS011;387;48.772;9.186;2022-08-03T04:30:16;9.30;;;6.10;;
809;SDS011;387;48.772;9.186;2022-08-03T04:32:43;8.03;;;6.43;;
809;SDS011;387;48.772;9.186;2022-08-03T04:35:15;9.20;;;5.80;;
809;SDS011;387;48.772;9.186;2022-08-03T04:37:42;15.43;;;7.10;;
809;SDS011;387;48.772;9.186;2022-08-03T04:40:24;7.37;;;5.67;;
809;SDS011;387;48.772;9.186;2022-08-03T04:42:52;7.40;;;5.80;;
809;SDS011;387;48.772;9.186;2022-08-03T04:45:20;7.37;;;5.70;;
809;SDS011;387;48.772;9.186;2022-08-03T04:47:46;12.47;;;6.00;;
809;SDS011;387;48.772;9.186;2022-08-03T04:50:12;8.90;;;5.77;;
809;SDS011;387;48.772;9.186;2022-08-03T04:52:39;7.83;;;5.70;;
809;SDS011;387;48.772;9.186;2022-08-03T04:55:05;13.87;;;6.90;;
809;SDS011;387;48.772;9.186;2022-08-03T04:57:31;10.17;;;7.07;;
809;SDS011;387;48.772;9.186;2022-08-03T04:59:56;8.03;;;5.90;;
809;SDS011;387;48.772;9.186;2022-08-03T05:02:22;8.30;;;6.00;;
809;SDS011;387;48.772;9.186;2022-08-03T05:04:48;10.20;;;6.53;;
809;SDS011;387;48.772;9.186;2022-08-03T05:07:14;9.47;;;6.27;;
809;SDS011;387;48.772;9.186;2022-08-03T05:09:41;8.30;;;6.60;;
809;SDS011;387;48.772;9.186;2022-08-03T05:12:07;9.17;;;6.47;;
809;SDS011;387;48.772;9.186;2022-08-03T05:14:33;9.23;;;6.40;;
809;SDS011;387;48.772;9.186;2022-08-03T05:17:01;9.50;;;7.57;;
809;SDS011;387;48.772;9.186;2022-08-03T05:19:28;10.40;;;6.10;;
809;SDS011;387;48.772;9.186;2022-08-03T05:21:53;8.97;;;6.50;;
809;SDS011;387;48.772;9.186;2022-08-03T05:24:19;8.70;;;6.10;;
809;SDS011;387;48.772;9.186;2022-08-03T05:26:44;10.37;;;6.80;;
809;SDS011;387;48.772;9.186;2022-08-03T05:29:10;10.00;;;7.47;;
809;SDS011;387;48.772;9.186;2022-08-03T05:31:35;12.67;;;7.23;;
809;SDS011;387;48.772;9.186;2022-08-03T05:34:01;10.43;;;7.53;;
809;SDS011;387;48.772;9.186;2022-08-03T05:36:27;7.90;;;6.53;;
809;SDS011;387;48.772;9.186;2022-08-03T05:38:52;8.70;;;5.97;;
809;SDS011;387;48.772;9.186;2022-08-03T05:41:18;8.27;;;6.30;;
809;SDS011;387;48.772;9.186;2022-08-03T05:43:44;10.83;;;7.90;;
809;SDS011;387;48.772;9.186;2022-08-03T05:46:10;11.73;;;7.40;;
809;SDS011;387;48.772;9.186;2022-08-03T05:48:36;7.73;;;6.20;;
809;SDS011;387;48.772;9.186;2022-08-03T05:51:02;8.40;;;6.50;;
809;SDS011;387;48.772;9.186;2022-08-03T05:53:33;13.10;;;7.50;;
809;SDS011;387;48.772;9.186;2022-08-03T05:55:59;11.17;;;7.40;;
809;SDS011;387;48.772;9.186;2022-08-03T05:58:25;8.00;;;6.67;;
809;SDS011;387;48.772;9.186;2022-08-03T06:00:50;12.23;;;7.20;;
809;SDS011;387;48.772;9.186;2022-08-03T06:03:16;8.10;;;6.40;;
809;SDS011;387;48.772;9.186;2022-08-03T06:05:42;8.70;;;6.00;;
809;SDS011;387;48.772;9.186;2022-08-03T06:08:07;9.70;;;6.33;;
809;SDS011;387;48.772;9.186;2022-08-03T06:10:33;8.47;;;6.50;;
809;SDS011;387;48.772;9.186;2022-08-03T06:12:58;9.97;;;6.87;;
809;SDS011;387;48.772;9.186;2022-08-03T06:15:24;9.37;;;6.83;;
809;SDS011;387;48.772;9.186;2022-08-03T06:17:50;10.27;;;7.10;;
809;SDS011;387;48.772;9.186;2022-08-03T06:20:17;11.60;;;6.60;;
809;SDS011;387;48.772;9.186;2022-08-03T06:22:43;8.53;;;6.13;;
809;SDS011;387;48.772;9.186;2022-08-03T06:25:09;8.90;;;6.00;;
809;SDS011;387;48.772;9.186;2022-08-03T06:27:35;8.90;;;6.30;;
809;SDS011;387;48.772;9.186;2022-08-03T06:30:04;7.70;;;5.70;;
809;SDS011;387;48.772;9.186;2022-08-03T06:32:32;9.80;;;6.57;;
809;SDS011;387;48.772;9.186;2022-08-03T06:34:58;8.53;;;6.00;;
809;SDS011;387;48.772;9.186;2022-08-03T06:37:24;9.70;;;6.33;;
809;SDS011;387;48.772;9.186;2022-08-03T06:39:51;7.83;;;6.27;;
809;SDS011;387;48.772;9.186;2022-08-03T06:42:17;8.27;;;5.53;;
809;SDS011;387;48.772;9.186;2022-08-03T06:44:43;12.40;;;5.70;;
809;SDS011;387;48.772;9.186;2022-08-03T06:47:08;8.47;;;5.60;;
809;SDS011;387;48.772;9.186;2022-08-03T06:49:34;9.70;;;6.50;;
809;SDS011;387;48.772;9.186;2022-08-03T06:51:59;9.57;;;7.10;;
809;SDS011;387;48.772;9.186;2022-08-03T06:54:25;12.43;;;6.20;;
809;SDS011;387;48.772;9.186;2022-08-03T06:56:50;8.73;;;5.07;;
809;SDS011;387;48.772;9.186;2022-08-03T06:59:16;10.50;;;6.30;;
809;SDS011;387;48.772;9.186;2022-08-03T07:01:42;8.53;;;6.63;;
809;SDS011;387;48.772;9.186;2022-08-03T07:04:07;11.40;;;6.63;;
809;SDS011;387;48.772;9.186;2022-08-03T07:06:33;9.90;;;6.30;;
809;SDS011;387;48.772;9.186;2022-08-03T07:08:59;9.13;;;6.80;;
809;SDS011;387;48.772;9.186;2022-08-03T07:11:25;7.90;;;6.17;;
809;SDS011;387;48.772;9.186;2022-08-03T07:13:52;8.73;;;6.80;;
809;SDS011;387;48.772;9.186;2022-08-03T07:16:18;11.20;;;7.37;;
809;SDS011;387;48.772;9.186;2022-08-03T07:18:44;17.30;;;7.37;;
809;SDS011;387;48.772;9.186;2022-08-03T07:21:10;11.50;;;6.40;;
809;SDS011;387;48.772;9.186;2022-08-03T07:23:36;13.63;;;6.97;;
809;SDS011;387;48.772;9.186;2022-08-03T07:26:02;10.67;;;6.53;;
809;SDS011;387;48.772;9.186;2022-08-03T07:28:28;9.30;;;6.67;;
809;SDS011;387;48.772;9.186;2022-08-03T07:30:54;8.43;;;6.80;;
809;SDS011;387;48.772;9.186;2022-08-03T07:33:19;10.70;;;6.57;;
809;SDS011;387;48.772;9.186;2022-08-03T07:35:45;9.33;;;6.83;;
809;SDS011;387;48.772;9.186;2022-08-03T07:38:10;14.97;;;7.50;;
809;SDS011;387;48.772;9.186;2022-08-03T07:40:36;15.57;;;7.20;;
809;SDS011;387;48.772;9.186;2022-08-03T07:43:02;10.10;;;7.13;;
809;SDS011;387;48.772;9.186;2022-08-03T07:45:29;11.27;;;6.90;;
809;SDS011;387;48.772;9.186;2022-08-03T07:47:55;11.80;;;7.20;;
809;SDS011;387;48.772;9.186;2022-08-03T07:50:21;11.10;;;6.93;;
809;SDS011;387;48.772;9.186;2022-08-03T07:52:47;11.23;;;6.50;;
809;SDS011;387;48.772;9.186;2022-08-03T07:55:13;10.90;;;6.73;;
809;SDS011;387;48.772;9.186;2022-08-03T07:57:39;8.70;;;6.57;;
809;SDS011;387;48.772;9.186;2022-08-03T08:00:06;12.33;;;7.13;;
809;SDS011;387;48.772;9.186;2022-08-03T08:02:37;11.20;;;7.10;;
809;SDS011;387;48.772;9.186;2022-08-03T08:05:04;7.77;;;5.70;;
809;SDS011;387;48.772;9.186;2022-08-03T08:07:29;11.97;;;5.93;;
809;SDS011;387;48.772;9.186;2022-08-03T08:09:55;10.10;;;5.10;;
809;SDS011;387;48.772;9.186;2022-08-03T08:12:21;7.50;;;5.70;;
809;SDS011;387;48.772;9.186;2022-08-03T08:14:47;8.83;;;5.07;;
809;SDS011;387;48.772;9.186;2022-08-03T08:17:12;7.97;;;5.10;;
809;SDS011;387;48.772;9.186;2022-08-03T08:19:38;11.70;;;5.57;;
809;SDS011;387;48.772;9.186;2022-08-03T08:22:04;7.70;;;5.57;;
809;SDS011;387;48.772;9.186;2022-08-03T08:24:30;11.70;;;5.73;;
809;SDS011;387;48.772;9.186;2022-08-03T08:26:57;8.17;;;5.30;;
809;SDS011;387;48.772;9.186;2022-08-03T08:29:25;11.93;;;5.70;;
809;SDS011;387;48.772;9.186;2022-08-03T08:31:50;8.00;;;4.67;;
809;SDS011;387;48.772;9.186;2022-08-03T08:34:16;5.10;;;4.00;;
809;SDS011;387;48.772;9.186;2022-08-03T08:36:42;9.43;;;4.60;;
809;SDS011;387;48.772;9.186;2022-08-03T08:39:07;8.37;;;3.70;;
809;SDS011;387;48.772;9.186;2022-08-03T08:41:33;6.13;;;3.70;;
809;SDS011;387;48.772;9.186;2022-08-03T08:43:59;12.90;;;4.30;;
809;SDS011;387;48.772;9.186;2022-08-03T08:46:25;6.03;;;3.70;;
809;SDS011;387;48.772;9.186;2022-08-03T08:48:52;6.07;;;3.30;;
809;SDS011;387;48.772;9.186;2022-08-03T08:51:18;7.47;;;3.77;;
809;SDS011;387;48.772;9.186;2022-08-03T08:53:47;8.03;;;3.70;;
809;SDS011;387;48.772;9.186;2022-08-03T08:56:15;3.60;;;2.90;;
809;SDS011;387;48.772;9.186;2022-08-03T08:58:48;3.57;;;2.60;;
809;SDS011;387;48.772;9.186;2022-08-03T09:01:17;3.00;;;2.40;;
809;SDS011;387;48.772;9.186;2022-08-03T09:03:44;3.00;;;2.13;;
809;SDS011;387;48.772;9.186;2022-08-03T09:06:10;6.73;;;2.40;;
809;SDS011;387;48.772;9.186;2022-08-03T09:08:35;3.90;;;2.20;;
809;SDS011;387;48.772;9.186;2022-08-03T09:11:01;7.10;;;2.50;;
809;SDS011;387;48.772;9.186;2022-08-03T09:13:27;3.70;;;2.90;;
809;SDS011;387;48.772;9.186;2022-08-03T09:18:52;4.73;;;2.67;;
809;SDS011;387;48.772;9.186;2022-08-03T09:23:53;3.80;;;2.97;;
809;SDS011;387;48.772;9.186;2022-08-03T09:29:03;7.63;;;2.40;;
809;SDS011;387;48.772;9.186;2022-08-03T09:31:38;3.93;;;2.60;;
809;SDS011;387;48.772;9.186;2022-08-03T09:34:06;8.13;;;2.70;;
809;SDS011;387;48.772;9.186;2022-08-03T09:36:44;3.70;;;2.80;;
809;SDS011;387;48.772;9.186;2022-08-03T09:39:17;4.60;;;2.40;;
809;SDS011;387;48.772;9.186;2022-08-03T09:41:49;3.33;;;2.60;;
809;SDS011;387;48.772;9.186;2022-08-03T09:44:37;3.23;;;2.50;;
809;SDS011;387;48.772;9.186;2022-08-03T09:47:06;3.67;;;3.17;;
809;SDS011;387;48.772;9.186;2022-08-03T09:49:32;3.53;;;2.40;;
809;SDS011;387;48.772;9.186;2022-08-03T09:52:01;3.10;;;2.47;;
809;SDS011;387;48.772;9.186;2022-08-03T09:54:40;5.63;;;2.73;;
809;SDS011;387;48.772;9.186;2022-08-03T09:57:07;2.87;;;2.53;;
809;SDS011;387;48.772;9.186;2022-08-03T09:59:43;3.50;;;2.67;;
809;SDS011;387;48.772;9.186;2022-08-03T10:02:18;4.20;;;2.67;;
809;SDS011;387;48.772;9.186;2022-08-03T10:04:46;5.00;;;2.80;;
809;SDS011;387;48.772;9.186;2022-08-03T10:07:16;3.33;;;2.67;;
809;SDS011;387;48.772;9.186;2022-08-03T10:09:52;4.07;;;2.37;;
809;SDS011;387;48.772;9.186;2022-08-03T10:12:19;3.10;;;2.70;;
809;SDS011;387;48.772;9.186;2022-08-03T10:14:45;4.70;;;2.47;;
809;SDS011;387;48.772;9.186;2022-08-03T10:17:12;4.67;;;2.70;;
809;SDS011;387;48.772;9.186;2022-08-03T10:19:37;2.60;;;2.37;;
809;SDS011;387;48.772;9.186;2022-08-03T10:22:06;2.70;;;2.13;;
809;SDS011;387;48.772;9.186;2022-08-03T10:24:36;3.00;;;2.70;;
809;SDS011;387;48.772;9.186;2022-08-03T10:27:05;3.17;;;2.53;;
809;SDS011;387;48.772;9.186;2022-08-03T10:29:53;3.70;;;3.03;;
809;SDS011;387;48.772;9.186;2022-08-03T10:35:07;5.60;;;2.63;;
809;SDS011;387;48.772;9.186;2022-08-03T10:37:37;3.77;;;2.20;;
809;SDS011;387;48.772;9.186;2022-08-03T10:40:06;3.77;;;2.53;;
809;SDS011;387;48.772;9.186;2022-08-03T10:42:33;3.30;;;2.83;;
809;SDS011;387;48.772;9.186;2022-08-03T10:45:05;2.77;;;2.47;;
809;SDS011;387;48.772;9.186;2022-08-03T10:47:34;3.70;;;2.30;;
809;SDS011;387;48.772;9.186;2022-08-03T10:50:00;2.37;;;2.17;;
809;SDS011;387;48.772;9.186;2022-08-03T10:52:27;2.40;;;2.23;;
809;SDS011;387;48.772;9.186;2022-08-03T10:54:53;2.77;;;2.47;;
809;SDS011;387;48.772;9.186;2022-08-03T10:57:44;3.53;;;2.37;;
809;SDS011;387;48.772;9.186;2022-08-03T11:00:26;2.87;;;2.73;;
809;SDS011;387;48.772;9.186;2022-08-03T11:03:07;4.20;;;2.87;;
809;SDS011;387;48.772;9.186;2022-08-03T11:05:46;4.07;;;2.40;;
809;SDS011;387;48.772;9.186;2022-08-03T11:10:45;3.90;;;2.80;;
809;SDS011;387;48.772;9.186;2022-08-03T11:13:14;3.70;;;2.90;;
809;SDS011;387;48.772;9.186;2022-08-03T11:15:41;4.20;;;3.23;;
809;SDS011;387;48.772;9.186;2022-08-03T11:18:11;3.00;;;2.50;;
809;SDS011;387;48.772;9.186;2022-08-03T11:23:10;3.00;;;2.80;;
809;SDS011;387;48.772;9.186;2022-08-03T11:28:34;4.33;;;2.87;;
809;SDS011;387;48.772;9.186;2022-08-03T11:31:42;3.80;;;2.60;;
809;SDS011;387;48.772;9.186;2022-08-03T11:34:07;3.80;;;2.53;;
809;SDS011;387;48.772;9.186;2022-08-03T11:44:52;5.47;;;2.90;;
809;SDS011;387;48.772;9.186;2022-08-03T11:47:19;3.63;;;3.13;;
809;SDS011;387;48.772;9.186;2022-08-03T11:49:46;3.73;;;2.80;;
809;SDS011;387;48.772;9.186;2022-08-03T11:52:12;2.57;;;2.47;;
809;SDS011;387;48.772;9.186;2022-08-03T11:54:38;3.00;;;2.40;;
809;SDS011;387;48.772;9.186;2022-08-03T11:57:04;5.80;;;2.90;;
809;SDS011;387;48.772;9.186;2022-08-03T11:59:33;3.90;;;2.70;;
809;SDS011;387;48.772;9.186;2022-08-03T12:07:15;3.83;;;3.17;;
809;SDS011;387;48.772;9.186;2022-08-03T12:09:44;4.20;;;3.53;;
809;SDS011;387;48.772;9.186;2022-08-03T12:12:39;3.00;;;2.90;;
809;SDS011;387;48.772;9.186;2022-08-03T12:15:06;4.07;;;2.70;;
809;SDS011;387;48.772;9.186;2022-08-03T12:20:03;3.13;;;2.60;;
809;SDS011;387;48.772;9.186;2022-08-03T12:22:34;4.10;;;2.90;;
809;SDS011;387;48.772;9.186;2022-08-03T12:25:04;2.93;;;2.57;;
809;SDS011;387;48.772;9.186;2022-08-03T12:27:31;5.20;;;2.93;;
809;SDS011;387;48.772;9.186;2022-08-03T12:29:57;5.40;;;2.83;;
809;SDS011;387;48.772;9.186;2022-08-03T12:32:23;5.00;;;2.90;;
809;SDS011;387;48.772;9.186;2022-08-03T12:34:50;5.80;;;3.17;;
809;SDS011;387;48.772;9.186;2022-08-03T12:37:19;3.10;;;2.83;;
809;SDS011;387;48.772;9.186;2022-08-03T12:39:50;4.00;;;2.70;;
809;SDS011;387;48.772;9.186;2022-08-03T12:42:20;4.77;;;3.00;;
809;SDS011;387;48.772;9.186;2022-08-03T12:44:45;3.20;;;3.00;;
809;SDS011;387;48.772;9.186;2022-08-03T12:47:12;4.00;;;2.80;;
809;SDS011;387;48.772;9.186;2022-08-03T12:52:18;4.00;;;2.97;;
809;SDS011;387;48.772;9.186;2022-08-03T12:54:58;2.93;;;2.73;;
809;SDS011;387;48.772;9.186;2022-08-03T12:57:24;4.77;;;3.30;;
809;SDS011;387;48.772;9.186;2022-08-03T13:00:13;3.90;;;3.03;;
809;SDS011;387;48.772;9.186;2022-08-03T13:02:41;3.87;;;3.07;;
809;SDS011;387;48.772;9.186;2022-08-03T13:05:11;4.83;;;2.80;;
809;SDS011;387;48.772;9.186;2022-08-03T13:07:41;4.37;;;3.17;;
809;SDS011;387;48.772;9.186;2022-08-03T13:10:08;4.37;;;2.47;;
809;SDS011;387;48.772;9.186;2022-08-03T13:12:49;5.73;;;3.43;;
809;SDS011;387;48.772;9.186;2022-08-03T13:15:15;4.20;;;3.40;;
809;SDS011;387;48.772;9.186;2022-08-03T13:17:41;6.73;;;2.87;;
809;SDS011;387;48.772;9.186;2022-08-03T13:20:06;4.17;;;3.17;;
809;SDS011;387;48.772;9.186;2022-08-03T13:22:32;4.00;;;3.20;;
809;SDS011;387;48.772;9.186;2022-08-03T13:24:58;3.43;;;3.23;;
809;SDS011;387;48.772;9.186;2022-08-03T13:27:28;3.47;;;3.03;;
809;SDS011;387;48.772;9.186;2022-08-03T13:29:54;7.60;;;3.30;;
809;SDS011;387;48.772;9.186;2022-08-03T13:32:21;3.27;;;2.80;;
809;SDS011;387;48.772;9.186;2022-08-03T13:34:47;3.00;;;2.77;;
809;SDS011;387;48.772;9.186;2022-08-03T13:37:13;4.13;;;3.03;;
809;SDS011;387;48.772;9.186;2022-08-03T13:39:39;3.83;;;3.00;;
809;SDS011;387;48.772;9.186;2022-08-03T13:42:05;4.50;;;2.90;;
809;SDS011;387;48.772;9.186;2022-08-03T13:44:31;3.67;;;3.10;;
809;SDS011;387;48.772;9.186;2022-08-03T13:46:57;4.07;;;3.17;;
809;SDS011;387;48.772;9.186;2022-08-03T13:49:24;4.23;;;3.10;;
809;SDS011;387;48.772;9.186;2022-08-03T13:51:50;6.50;;;2.73;;
809;SDS011;387;48.772;9.186;2022-08-03T13:54:16;5.07;;;3.70;;
809;SDS011;387;48.772;9.186;2022-08-03T13:56:43;3.50;;;3.17;;
809;SDS011;387;48.772;9.186;2022-08-03T13:59:14;4.30;;;3.50;;
809;SDS011;387;48.772;9.186;2022-08-03T14:01:39;3.83;;;2.80;;
809;SDS011;387;48.772;9.186;2022-08-03T14:04:05;4.90;;;3.20;;
809;SDS011;387;48.772;9.186;2022-08-03T14:06:31;3.77;;;3.07;;
809;SDS011;387;48.772;9.186;2022-08-03T14:08:56;3.80;;;2.97;;
809;SDS011;387;48.772;9.186;2022-08-03T14:11:22;3.17;;;2.77;;
809;SDS011;387;48.772;9.186;2022-08-03T14:13:47;4.10;;;2.93;;
809;SDS011;387;48.772;9.186;2022-08-03T14:16:13;3.63;;;3.17;;
809;SDS011;387;48.772;9.186;2022-08-03T14:18:38;3.93;;;3.00;;
809;SDS011;387;48.772;9.186;2022-08-03T14:21:06;3.23;;;3.00;;
809;SDS011;387;48.772;9.186;2022-08-03T14:23:32;2.90;;;2.43;;
809;SDS011;387;48.772;9.186;2022-08-03T14:25:58;3.73;;;2.70;;
809;SDS011;387;48.772;9.186;2022-08-03T14:28:24;2.87;;;2.67;;
809;SDS011;387;48.772;9.186;2022-08-03T14:30:50;4.37;;;2.93;;
809;SDS011;387;48.772;9.186;2022-08-03T14:33:16;3.67;;;2.80;;
809;SDS011;387;48.772;9.186;2022-08-03T14:35:42;2.93;;;2.73;;
809;SDS011;387;48.772;9.186;2022-08-03T14:38:07;4.70;;;2.90;;
809;SDS011;387;48.772;9.186;2022-08-03T14:40:33;3.83;;;2.83;;
809;SDS011;387;48.772;9.186;2022-08-03T14:42:58;3.30;;;3.03;;
809;SDS011;387;48.772;9.186;2022-08-03T14:45:24;3.10;;;2.93;;
809;SDS011;387;48.772;9.186;2022-08-03T14:47:50;3.80;;;2.87;;
809;SDS011;387;48.772;9.186;2022-08-03T14:50:15;4.00;;;3.30;;
809;SDS011;387;48.772;9.186;2022-08-03T14:52:41;5.90;;;3.30;;
809;SDS011;387;48.772;9.186;2022-08-03T14:55:07;3.87;;;3.00;;
809;SDS011;387;48.772;9.186;2022-08-03T14:57:33;3.77;;;3.00;;
809;SDS011;387;48.772;9.186;2022-08-03T14:59:58;4.33;;;3.30;;
809;SDS011;387;48.772;9.186;2022-08-03T15:02:24;6.10;;;3.50;;
809;SDS011;387;48.772;9.186;2022-08-03T15:04:51;4.43;;;3.20;;
809;SDS011;387;48.772;9.186;2022-08-03T15:07:17;4.53;;;2.90;;
809;SDS011;387;48.772;9.186;2022-08-03T15:09:44;4.30;;;3.40;;
809;SDS011;387;48.772;9.186;2022-08-03T15:12:09;3.00;;;2.70;;
809;SDS011;387;48.772;9.186;2022-08-03T15:14:35;3.60;;;3.10;;
809;SDS011;387;48.772;9.186;2022-08-03T15:17:00;3.40;;;3.23;;
809;SDS011;387;48.772;9.186;2022-08-03T15:19:26;3.50;;;2.90;;
809;SDS011;387;48.772;9.186;2022-08-03T15:21:52;3.30;;;2.83;;
809;SDS011;387;48.772;9.186;2022-08-03T15:24:18;3.63;;;3.00;;
809;SDS011;387;48.772;9.186;2022-08-03T15:26:43;6.83;;;2.50;;
809;SDS011;387;48.772;9.186;2022-08-03T15:29:09;4.90;;;2.90;;
809;SDS011;387;48.772;9.186;2022-08-03T15:31:34;7.23;;;3.03;;
809;SDS011;387;48.772;9.186;2022-08-03T15:34:00;3.90;;;2.90;;
809;SDS011;387;48.772;9.186;2022-08-03T15:36:26;2.60;;;2.43;;
809;SDS011;387;48.772;9.186;2022-08-03T15:38:51;3.87;;;2.50;;
809;SDS011;387;48.772;9.186;2022-08-03T15:41:17;3.10;;;2.50;;
809;SDS011;387;48.772;9.186;2022-08-03T15:43:44;3.23;;;2.70;;
809;SDS011;387;48.772;9.186;2022-08-03T15:46:10;3.60;;;3.00;;
809;SDS011;387;48.772;9.186;2022-08-03T15:48:36;3.10;;;2.90;;
809;SDS011;387;48.772;9.186;2022-08-03T15:51:03;3.30;;;2.83;;
809;SDS011;387;48.772;9.186;2022-08-03T15:53:29;3.40;;;2.77;;
809;SDS011;387;48.772;9.186;2022-08-03T15:55:54;3.90;;;2.97;;
809;SDS011;387;48.772;9.186;2022-08-03T15:58:20;3.73;;;3.13;;
809;SDS011;387;48.772;9.186;2022-08-03T16:00:46;4.30;;;3.13;;
809;SDS011;387;48.772;9.186;2022-08-03T16:03:11;4.03;;;2.90;;
809;SDS011;387;48.772;9.186;2022-08-03T16:05:37;4.10;;;2.63;;
809;SDS011;387;48.772;9.186;2022-08-03T16:08:03;4.30;;;3.03;;
809;SDS011;387;48.772;9.186;2022-08-03T16:10:28;5.70;;;3.17;;
809;SDS011;387;48.772;9.186;2022-08-03T16:12:54;6.50;;;2.97;;
809;SDS011;387;48.772;9.186;2022-08-03T16:15:20;3.37;;;3.13;;
809;SDS011;387;48.772;9.186;2022-08-03T16:17:46;7.43;;;3.30;;
809;SDS011;387;48.772;9.186;2022-08-03T16:20:12;3.60;;;2.43;;
809;SDS011;387;48.772;9.186;2022-08-03T16:22:44;3.60;;;2.83;;
809;SDS011;387;48.772;9.186;2022-08-03T16:25:11;3.77;;;2.80;;
809;SDS011;387;48.772;9.186;2022-08-03T16:27:39;3.00;;;2.40;;
809;SDS011;387;48.772;9.186;2022-08-03T16:30:05;3.23;;;2.77;;
809;SDS011;387;48.772;9.186;2022-08-03T16:32:33;3.50;;;2.87;;
809;SDS011;387;48.772;9.186;2022-08-03T16:34:59;4.13;;;3.40;;
809;SDS011;387;48.772;9.186;2022-08-03T16:37:25;3.13;;;2.87;;
809;SDS011;387;48.772;9.186;2022-08-03T16:39:51;2.90;;;2.70;;